Terminal Aerodrome Forecast
Issued by NWS North Platte, NE

Home | Current Version | Previous Version | Graphics & Text | Print | Product List | Glossary On
Versions: 1 2 3 4 5 6 7 8 9 10 11 12 13
000
FTUS43 KLBF 201100
TAFVTN
TAF
KVTN 201124Z 2012/2112 VRB06KT P6SM SKC
     FM201500 14010KT P6SM SCT200
     FM201900 19011KT P6SM SCT100
     FM210000 22012KT P6SM SCT070 BKN100
     FM210400 34012KT P6SM BKN120
     FM210800 33013KT P6SM SKC=

USA.gov is the U.S. government's official web portal to all federal, state and local government web resources and services.